Northeast Iowa Regional Airport Charles City US
ICAO: KCCY
IATA: CCY
Category: Medium
Scheduled Services: No

Elevation: 1125 ft
TransAlt. 18000 ft.

Airport Communications:
WATERLOO APP/DEP:118.9
AWOS 3:125.525
FORT DODGE RDO:122.4
CTAF/UNICOM:122.8

KCCY Zoom In..

If Map Doesn't Load, Click Here

Runways:

(A) RW 04 length 2536 ft width 160 ft
LOC 108.30 / hdg 42

(B) RW 12 length 4000 ft width 75 ft
LOC 108.30 / hdg 122

(C) RW 18 length 1780 ft width 170 ft
LOC 108.30 / hdg 177

(D) RW 22 length 2536 ft width 160 ft
LOC 108.30 / hdg 222

(E) RW 30 length 4000 ft width 75 ft
LOC 108.30 / hdg 302

(F) RW 36 length 1780 ft width 170 ft
LOC 108.30 / hdg 357

Location; KCCY
Day. 21 / Time. 15.35 Zulu
* Altimeter: 30.05
* Temperature: 14° c. 57.2°f.
* Wind from: 310° Speed 24 kn with Gusts up to 32 kn.
Dewpoint: 09° c.
Visibility: 10 Statute Miles.
Clouds: Overcast 2500 ft.

KCCY 211535Z AUTO 31024G32KT 10SM OVC025 14/09 A3005 RMK AO2


Wind From 310°
Speed 24 kn.

 
 
jpsmedia.com for Web Design worldairports.se 2018   terms of use